createdAt,value
2022-08-12T00:00:46.650Z,0.00
2022-08-12T00:02:02.589Z,0.00
2022-08-12T00:02:51.166Z,0.00
2022-08-12T00:03:45.615Z,0.00
2022-08-12T00:04:52.955Z,0.00
2022-08-12T00:06:01.782Z,0.00
2022-08-12T00:06:47.156Z,0.00
2022-08-12T00:07:45.602Z,0.00
2022-08-12T00:08:45.775Z,0.00
2022-08-12T00:09:45.545Z,0.00
2022-08-12T00:10:52.892Z,0.00
2022-08-12T00:11:45.547Z,0.00
2022-08-12T00:12:45.720Z,0.00
2022-08-12T00:13:45.503Z,0.00
2022-08-12T00:14:45.715Z,0.00
2022-08-12T00:15:45.489Z,0.00
2022-08-12T00:16:52.312Z,0.00
2022-08-12T00:17:45.495Z,0.00
2022-08-12T00:18:45.648Z,0.00
2022-08-12T00:19:45.425Z,0.00
2022-08-12T00:20:45.529Z,0.00
2022-08-12T00:21:51.654Z,0.00
2022-08-12T00:22:45.442Z,0.00
2022-08-12T00:23:45.365Z,0.00
2022-08-12T00:24:45.438Z,0.00
2022-08-12T00:25:55.850Z,0.00
2022-08-12T00:26:52.624Z,0.00
2022-08-12T00:27:45.363Z,0.00
2022-08-12T00:28:45.313Z,0.00
2022-08-12T00:29:47.921Z,0.00
2022-08-12T00:30:45.297Z,0.00
2022-08-12T00:31:45.290Z,0.00
2022-08-12T00:32:56.403Z,0.00
2022-08-12T00:33:52.419Z,0.00
2022-08-12T00:34:49.052Z,0.00
2022-08-12T00:35:45.316Z,0.00
2022-08-12T00:36:45.208Z,0.00
2022-08-12T00:37:51.500Z,0.00
2022-08-12T00:38:45.216Z,0.00
2022-08-12T00:39:45.252Z,0.00
2022-08-12T00:40:45.224Z,0.00
2022-08-12T00:41:45.200Z,0.00
2022-08-12T00:42:51.706Z,0.00
2022-08-12T00:43:45.125Z,0.00
2022-08-12T00:44:45.100Z,0.00
2022-08-12T00:45:45.105Z,0.00
2022-08-12T00:46:45.104Z,0.00
2022-08-12T00:47:45.074Z,0.00
2022-08-12T00:48:51.329Z,0.00
2022-08-12T00:49:45.040Z,0.00
2022-08-12T00:50:46.570Z,0.00
2022-08-12T00:51:45.038Z,0.00
2022-08-12T00:52:45.030Z,0.00
2022-08-12T00:53:51.257Z,0.00
2022-08-12T00:54:46.256Z,0.00
2022-08-12T00:55:45.026Z,0.00
2022-08-12T00:56:45.023Z,0.00
2022-08-12T00:57:44.972Z,0.00
2022-08-12T00:58:46.090Z,0.00
2022-08-12T00:59:51.304Z,0.00
2022-08-12T01:00:44.971Z,0.00
2022-08-12T01:02:11.007Z,0.00
2022-08-12T01:02:45.973Z,0.00
2022-08-12T01:03:45.107Z,0.00
2022-08-12T01:04:51.124Z,0.00
2022-08-12T01:05:44.865Z,0.00
2022-08-12T01:06:44.850Z,0.00
2022-08-12T01:07:46.335Z,0.00
2022-08-12T01:08:44.822Z,0.00
2022-08-12T01:09:45.046Z,0.00
2022-08-12T01:10:51.130Z,0.00
2022-08-12T01:11:44.780Z,0.00
2022-08-12T01:12:44.779Z,0.00
2022-08-12T01:13:44.779Z,0.00
2022-08-12T01:14:45.032Z,0.00
2022-08-12T01:15:46.067Z,0.00
2022-08-12T01:16:52.211Z,0.00
2022-08-12T01:17:44.701Z,0.00
2022-08-12T01:18:45.737Z,0.00
2022-08-12T01:19:44.661Z,0.00
2022-08-12T01:20:45.028Z,0.00
2022-08-12T01:21:51.097Z,0.00
2022-08-12T01:22:44.649Z,0.00
2022-08-12T01:23:44.634Z,0.00
2022-08-12T01:24:44.817Z,0.00
2022-08-12T01:25:56.038Z,0.00
2022-08-12T01:26:46.113Z,0.00
2022-08-12T01:27:51.018Z,0.00
2022-08-12T01:28:44.580Z,0.00
2022-08-12T01:29:44.535Z,0.00
2022-08-12T01:30:46.508Z,0.00
2022-08-12T01:31:44.494Z,0.00
2022-08-12T01:32:44.522Z,0.00
2022-08-12T01:33:50.755Z,0.00
2022-08-12T01:34:44.535Z,0.00
2022-08-12T01:35:44.480Z,0.00
2022-08-12T01:36:46.020Z,0.00
2022-08-12T01:37:44.451Z,0.00
2022-08-12T01:38:50.729Z,0.00
2022-08-12T01:40:36.046Z,0.00
2022-08-12T01:40:47.200Z,0.00
2022-08-12T01:41:44.381Z,0.00
2022-08-12T01:42:45.972Z,0.00
2022-08-12T01:43:50.644Z,0.00
2022-08-12T01:44:44.369Z,0.00
2022-08-12T01:45:44.354Z,0.00
2022-08-12T01:46:44.333Z,0.00
2022-08-12T01:47:44.366Z,0.00
2022-08-12T01:48:50.980Z,0.00
2022-08-12T01:49:44.299Z,0.00
2022-08-12T01:50:44.251Z,0.00
2022-08-12T01:52:19.807Z,0.00
2022-08-12T01:52:45.243Z,0.00
2022-08-12T01:53:51.166Z,0.00
2022-08-12T01:54:44.212Z,0.00
2022-08-12T01:55:44.213Z,0.00
2022-08-12T01:56:44.183Z,0.00
2022-08-12T01:57:58.733Z,0.00
2022-08-12T01:58:45.692Z,0.00
2022-08-12T01:59:50.412Z,0.00
2022-08-12T02:00:46.003Z,0.00
2022-08-12T02:01:45.767Z,0.00
2022-08-12T02:02:45.079Z,0.00
2022-08-12T02:03:44.129Z,0.00
2022-08-12T02:04:44.100Z,0.00
2022-08-12T02:05:50.410Z,0.00
2022-08-12T02:06:44.084Z,0.00
2022-08-12T02:07:44.058Z,0.00
2022-08-12T02:08:44.063Z,0.00
2022-08-12T02:09:44.027Z,0.00
2022-08-12T02:10:52.051Z,0.00
2022-08-12T02:11:44.063Z,0.00
2022-08-12T02:12:44.024Z,0.00
2022-08-12T02:13:49.618Z,0.00
2022-08-12T02:14:45.466Z,0.00
2022-08-12T02:15:44.023Z,0.00
2022-08-12T02:16:50.326Z,0.00
2022-08-12T02:17:54.620Z,0.00
2022-08-12T02:18:45.441Z,0.00
2022-08-12T02:19:43.952Z,0.00
2022-08-12T02:20:51.285Z,0.00
2022-08-12T02:21:51.661Z,0.00
2022-08-12T02:22:43.865Z,0.00
2022-08-12T02:23:43.849Z,0.00
2022-08-12T02:24:43.858Z,0.00
2022-08-12T02:25:43.866Z,0.00
2022-08-12T02:26:43.823Z,0.00
2022-08-12T02:27:50.120Z,0.00
2022-08-12T02:28:43.795Z,0.00
2022-08-12T02:29:43.777Z,0.00
2022-08-12T02:30:43.808Z,0.00
2022-08-12T02:31:43.746Z,0.00
2022-08-12T02:32:44.308Z,0.00
2022-08-12T02:33:50.019Z,0.00
2022-08-12T02:34:43.714Z,0.00
2022-08-12T02:35:43.824Z,0.00
2022-08-12T02:36:43.685Z,0.00
2022-08-12T02:37:43.679Z,0.00
2022-08-12T02:38:43.663Z,0.00
2022-08-12T02:39:50.046Z,0.00
2022-08-12T02:40:43.685Z,0.00
2022-08-12T02:41:43.750Z,0.00
2022-08-12T02:42:43.654Z,0.00
2022-08-12T02:43:43.588Z,0.00
2022-08-12T02:44:43.588Z,0.00
2022-08-12T02:45:49.896Z,0.00
2022-08-12T02:46:43.656Z,0.00
2022-08-12T02:47:59.835Z,0.00
2022-08-12T02:48:45.047Z,0.00
2022-08-12T02:49:43.822Z,0.00
2022-08-12T02:50:49.840Z,0.00
2022-08-12T02:51:43.496Z,0.00
2022-08-12T02:52:43.503Z,0.00
2022-08-12T02:53:43.494Z,0.00
2022-08-12T02:54:43.485Z,0.00
2022-08-12T02:55:49.742Z,0.00
2022-08-12T02:56:50.238Z,0.00
2022-08-12T02:57:44.905Z,0.00
2022-08-12T02:58:45.234Z,0.00
2022-08-12T02:59:43.400Z,0.00
2022-08-12T03:00:49.770Z,0.00
2022-08-12T03:01:48.016Z,0.00
2022-08-12T03:02:44.385Z,0.00
2022-08-12T03:03:43.328Z,0.00
2022-08-12T03:04:44.142Z,0.00
2022-08-12T03:05:44.598Z,0.00
2022-08-12T03:06:49.567Z,0.00
2022-08-12T03:07:56.584Z,0.00
2022-08-12T03:08:44.802Z,0.00
2022-08-12T03:10:04.226Z,0.00
2022-08-12T03:10:45.758Z,4.00
2022-08-12T03:11:49.517Z,4.00
2022-08-12T03:12:48.834Z,0.00
2022-08-12T03:13:44.993Z,0.00
2022-08-12T03:14:43.205Z,4.00
2022-08-12T03:15:44.247Z,4.00
2022-08-12T03:16:43.180Z,4.00
2022-08-12T03:18:24.709Z,4.00
2022-08-12T03:18:46.058Z,4.00
2022-08-12T03:20:08.828Z,8.00
2022-08-12T03:20:44.177Z,4.00
2022-08-12T03:21:54.680Z,4.00
2022-08-12T03:22:50.609Z,8.00
2022-08-12T03:23:43.083Z,8.00
2022-08-12T03:24:43.057Z,12.00
2022-08-12T03:25:43.148Z,12.00
2022-08-12T03:26:43.331Z,16.00
2022-08-12T03:27:49.422Z,16.00
2022-08-12T03:28:43.105Z,16.00
2022-08-12T03:29:50.143Z,20.00
2022-08-12T03:30:44.569Z,24.00
2022-08-12T03:31:42.986Z,24.00
2022-08-12T03:32:42.983Z,32.00
2022-08-12T03:34:02.003Z,32.00
2022-08-12T03:34:44.591Z,40.00
2022-08-12T03:35:42.947Z,40.00
2022-08-12T03:36:42.938Z,44.00
2022-08-12T03:37:42.953Z,52.00
2022-08-12T03:38:42.902Z,56.00
2022-08-12T03:39:49.234Z,64.00
2022-08-12T03:40:43.290Z,68.00
2022-08-12T03:41:42.871Z,72.00
2022-08-12T03:42:42.931Z,80.00
2022-08-12T03:43:43.107Z,88.00
2022-08-12T03:44:43.788Z,96.00
2022-08-12T03:45:51.477Z,104.00
2022-08-12T03:46:43.134Z,112.00
2022-08-12T03:47:42.770Z,124.00
2022-08-12T03:48:42.769Z,132.00
2022-08-12T03:49:42.784Z,140.00
2022-08-12T03:50:42.751Z,148.00
2022-08-12T03:51:49.013Z,160.00
2022-08-12T03:52:42.710Z,172.00
2022-08-12T03:53:42.710Z,180.00
2022-08-12T03:54:42.804Z,188.00
2022-08-12T03:55:43.198Z,200.00
2022-08-12T03:56:42.734Z,212.00
2022-08-12T03:57:49.231Z,228.00
2022-08-12T03:58:42.752Z,240.00
2022-08-12T03:59:42.619Z,248.00
2022-08-12T04:00:42.679Z,260.00
2022-08-12T04:01:42.611Z,276.00
2022-08-12T04:02:42.643Z,284.00
2022-08-12T04:03:48.954Z,300.00
2022-08-12T04:04:43.706Z,312.00
2022-08-12T04:05:56.245Z,324.00
2022-08-12T04:06:44.090Z,336.00
2022-08-12T04:07:57.876Z,348.00
2022-08-12T04:08:50.382Z,364.00
2022-08-12T04:09:42.552Z,376.00
2022-08-12T04:10:42.542Z,388.00
2022-08-12T04:11:47.102Z,400.00
2022-08-12T04:12:48.769Z,416.00
2022-08-12T04:13:42.456Z,428.00
2022-08-12T04:14:48.758Z,440.00
2022-08-12T04:15:43.676Z,452.00
2022-08-12T04:16:42.453Z,468.00
2022-08-12T04:18:06.666Z,480.00
2022-08-12T04:18:43.408Z,492.00
2022-08-12T04:19:42.692Z,504.00
2022-08-12T04:20:48.976Z,520.00
2022-08-12T04:22:02.164Z,532.00
2022-08-12T04:22:43.352Z,548.00
2022-08-12T04:23:47.613Z,560.00
2022-08-12T04:24:43.804Z,576.00
2022-08-12T04:25:43.856Z,588.00
2022-08-12T04:26:48.598Z,600.00
2022-08-12T04:27:46.446Z,612.00
2022-08-12T04:28:42.282Z,624.00
2022-08-12T04:30:21.291Z,636.00
2022-08-12T04:30:43.244Z,652.00
2022-08-12T04:31:43.538Z,664.00
2022-08-12T04:32:49.766Z,680.00
2022-08-12T04:33:42.246Z,688.00
2022-08-12T04:34:42.202Z,704.00
2022-08-12T04:35:42.206Z,716.00
2022-08-12T04:36:42.214Z,728.00
2022-08-12T04:37:59.002Z,740.00
2022-08-12T04:38:43.662Z,752.00
2022-08-12T04:39:42.193Z,768.00
2022-08-12T04:40:42.749Z,780.00
2022-08-12T04:41:50.386Z,792.00
2022-08-12T04:42:43.582Z,800.00
2022-08-12T04:44:00.375Z,812.00
2022-08-12T04:44:44.621Z,828.00
2022-08-12T04:45:42.427Z,836.00
2022-08-12T04:46:42.030Z,848.00
2022-08-12T04:47:42.036Z,860.00
2022-08-12T04:48:42.046Z,872.00
2022-08-12T04:49:48.325Z,880.00
2022-08-12T04:50:42.055Z,892.00
2022-08-12T04:51:42.278Z,908.00
2022-08-12T04:52:43.666Z,920.00
2022-08-12T04:53:41.928Z,928.00
2022-08-12T04:54:42.876Z,944.00
2022-08-12T04:55:48.240Z,960.00
2022-08-12T04:56:41.976Z,972.00
2022-08-12T04:57:42.831Z,980.00
2022-08-12T04:58:41.898Z,992.00
2022-08-12T04:59:47.922Z,1004.00
2022-08-12T05:00:43.395Z,1012.00
2022-08-12T05:01:49.136Z,1028.00
2022-08-12T05:02:42.033Z,1040.00
2022-08-12T05:03:46.814Z,1052.00
2022-08-12T05:04:43.602Z,1064.00
2022-08-12T05:05:41.824Z,1072.00
2022-08-12T05:06:48.085Z,1084.00
2022-08-12T05:07:47.817Z,1088.00
2022-08-12T05:08:43.327Z,1096.00
2022-08-12T05:10:01.804Z,1104.00
2022-08-12T05:10:44.207Z,1112.00
2022-08-12T05:11:54.178Z,1124.00
2022-08-12T05:12:46.304Z,1132.00
2022-08-12T05:13:41.740Z,1136.00
2022-08-12T05:14:41.708Z,1144.00
2022-08-12T05:16:02.423Z,1156.00
2022-08-12T05:16:42.711Z,1164.00
2022-08-12T05:17:47.918Z,1172.00
2022-08-12T05:18:45.795Z,1180.00
2022-08-12T05:19:43.412Z,1188.00
2022-08-12T05:20:41.615Z,1196.00
2022-08-12T05:21:41.598Z,1204.00
2022-08-12T05:22:42.952Z,1212.00
2022-08-12T05:23:48.175Z,1216.00
2022-08-12T05:24:41.587Z,1224.00
2022-08-12T05:25:41.600Z,1228.00
2022-08-12T05:26:41.537Z,1236.00
2022-08-12T05:27:58.022Z,1240.00
2022-08-12T05:28:43.328Z,1248.00
2022-08-12T05:30:06.953Z,1252.00
2022-08-12T05:30:42.710Z,1260.00
2022-08-12T05:31:47.912Z,1264.00
2022-08-12T05:32:42.951Z,1272.00
2022-08-12T05:33:41.794Z,1280.00
2022-08-12T05:34:47.971Z,1284.00
2022-08-12T05:35:41.405Z,1288.00
2022-08-12T05:36:42.359Z,1296.00
2022-08-12T05:37:41.410Z,1304.00
2022-08-12T05:38:41.367Z,1308.00
2022-08-12T05:39:47.856Z,1316.00
2022-08-12T05:40:42.653Z,1324.00
2022-08-12T05:41:41.349Z,1328.00
2022-08-12T05:42:41.911Z,1336.00
2022-08-12T05:43:41.356Z,1340.00
2022-08-12T05:44:41.323Z,1348.00
2022-08-12T05:45:48.840Z,1356.00
2022-08-12T05:46:41.321Z,1360.00
2022-08-12T05:47:53.774Z,1364.00
2022-08-12T05:48:42.797Z,1368.00
2022-08-12T05:49:42.223Z,1372.00
2022-08-12T05:50:47.648Z,1376.00
2022-08-12T05:51:41.898Z,1380.00
2022-08-12T05:52:41.955Z,1384.00
2022-08-12T05:53:42.306Z,1388.00
2022-08-12T05:54:56.702Z,1396.00
2022-08-12T05:55:48.979Z,1400.00
2022-08-12T05:56:41.141Z,1404.00
2022-08-12T05:57:41.189Z,1404.00
2022-08-12T05:58:41.111Z,1408.00
2022-08-12T05:59:41.110Z,1412.00
2022-08-12T06:00:42.051Z,1412.00
2022-08-12T06:02:12.713Z,1412.00
2022-08-12T06:02:42.243Z,1420.00
2022-08-12T06:03:41.091Z,1420.00
2022-08-12T06:04:41.049Z,1424.00
2022-08-12T06:05:51.798Z,1432.00
2022-08-12T06:06:42.802Z,1432.00
2022-08-12T06:08:01.906Z,1436.00
2022-08-12T06:08:42.815Z,1440.00
2022-08-12T06:09:41.343Z,1448.00
2022-08-12T06:10:41.333Z,1448.00
2022-08-12T06:11:41.353Z,1452.00
2022-08-12T06:12:42.625Z,1456.00
2022-08-12T06:13:53.834Z,1460.00
2022-08-12T06:14:42.413Z,1464.00
2022-08-12T06:15:41.873Z,1468.00
2022-08-12T06:16:40.925Z,1472.00
2022-08-12T06:17:41.237Z,1472.00
2022-08-12T06:18:40.872Z,1480.00
2022-08-12T06:20:27.839Z,1480.00
2022-08-12T06:20:42.022Z,1480.00
2022-08-12T06:21:40.844Z,1480.00
2022-08-12T06:22:41.105Z,1488.00
2022-08-12T06:23:42.855Z,1492.00
2022-08-12T06:24:40.860Z,1492.00
2022-08-12T06:25:47.393Z,1496.00
2022-08-12T06:26:41.813Z,1500.00
2022-08-12T06:27:41.791Z,1504.00
2022-08-12T06:28:41.767Z,1508.00
2022-08-12T06:30:06.791Z,1508.00
2022-08-12T06:30:42.037Z,1516.00
2022-08-12T06:31:47.012Z,1516.00
2022-08-12T06:32:51.940Z,1516.00
2022-08-12T06:33:56.106Z,1520.00
2022-08-12T06:35:23.932Z,1524.00
2022-08-12T06:35:48.719Z,1524.00
2022-08-12T06:36:48.437Z,1532.00
2022-08-12T06:37:40.699Z,1528.00
2022-08-12T06:38:40.943Z,1532.00
2022-08-12T06:39:40.653Z,1536.00
2022-08-12T06:40:40.701Z,1536.00
2022-08-12T06:42:33.012Z,1540.00
2022-08-12T06:43:25.567Z,1540.00
2022-08-12T06:44:24.057Z,1544.00
2022-08-12T06:45:24.065Z,1544.00
2022-08-12T06:46:25.055Z,1544.00
2022-08-12T06:47:30.326Z,1548.00
2022-08-12T06:48:24.004Z,1544.00
2022-08-12T06:49:24.002Z,1548.00
2022-08-12T06:50:24.068Z,1548.00
2022-08-12T06:51:23.984Z,1548.00
2022-08-12T06:52:30.245Z,1548.00
2022-08-12T06:53:23.935Z,1556.00
2022-08-12T06:54:30.786Z,1552.00
2022-08-12T06:55:25.451Z,1560.00
2022-08-12T06:56:35.005Z,1560.00
2022-08-12T06:58:08.090Z,1564.00
2022-08-12T06:58:31.158Z,1568.00
2022-08-12T06:59:23.866Z,1568.00
2022-08-12T07:00:30.679Z,1572.00
2022-08-12T07:01:25.378Z,1568.00
2022-08-12T07:02:23.857Z,1568.00
2022-08-12T07:03:23.898Z,1572.00
2022-08-12T07:04:38.822Z,1576.00
2022-08-12T07:05:25.318Z,1572.00
2022-08-12T07:06:23.785Z,1580.00
2022-08-12T07:07:23.757Z,1580.00
2022-08-12T07:08:23.747Z,1580.00
2022-08-12T07:10:05.198Z,1584.00
2022-08-12T07:10:24.853Z,1584.00
2022-08-12T07:11:23.748Z,1588.00
2022-08-12T07:12:23.685Z,1588.00
2022-08-12T07:13:24.011Z,1588.00
2022-08-12T07:14:30.017Z,1592.00
2022-08-12T07:15:23.973Z,1592.00
2022-08-12T07:16:23.687Z,1592.00
2022-08-12T07:17:23.624Z,1596.00
2022-08-12T07:18:23.622Z,1592.00
2022-08-12T07:19:23.632Z,1596.00
2022-08-12T07:20:51.217Z,1596.00
2022-08-12T07:21:24.927Z,1596.00
2022-08-12T07:22:24.558Z,1596.00
2022-08-12T07:23:23.640Z,1600.00
2022-08-12T07:24:23.536Z,1604.00
2022-08-12T07:25:29.854Z,1604.00
2022-08-12T07:26:26.758Z,1612.00
2022-08-12T07:27:23.561Z,1608.00
2022-08-12T07:28:23.506Z,1608.00
2022-08-12T07:30:00.119Z,1612.00
2022-08-12T07:30:31.783Z,1616.00
2022-08-12T07:31:23.470Z,1616.00
2022-08-12T07:32:23.771Z,1620.00
2022-08-12T07:33:23.435Z,1624.00
2022-08-12T07:34:23.745Z,1628.00
2022-08-12T07:35:29.835Z,1628.00
2022-08-12T07:36:23.677Z,1632.00
2022-08-12T07:37:23.416Z,1632.00
2022-08-12T07:38:29.600Z,1636.00
2022-08-12T07:39:24.912Z,1640.00
2022-08-12T07:40:23.377Z,1640.00
2022-08-12T07:41:29.617Z,1640.00
2022-08-12T07:42:23.316Z,1644.00
2022-08-12T07:43:23.305Z,1644.00
2022-08-12T07:44:23.599Z,1644.00
2022-08-12T07:45:23.622Z,1648.00
2022-08-12T07:46:23.261Z,1648.00
2022-08-12T07:47:29.539Z,1648.00
2022-08-12T07:48:23.246Z,1652.00
2022-08-12T07:49:23.283Z,1652.00
2022-08-12T07:50:24.028Z,1652.00
2022-08-12T07:51:25.593Z,1656.00
2022-08-12T07:52:29.461Z,1660.00
2022-08-12T07:53:23.193Z,1664.00
2022-08-12T07:54:23.215Z,1664.00
2022-08-12T07:55:23.166Z,1668.00
2022-08-12T07:56:23.152Z,1664.00
2022-08-12T07:57:45.173Z,1668.00
2022-08-12T07:58:23.113Z,1668.00
2022-08-12T07:59:24.100Z,1672.00
2022-08-12T08:00:23.440Z,1680.00
2022-08-12T08:01:23.156Z,1684.00
2022-08-12T08:02:26.808Z,1688.00
2022-08-12T08:03:30.389Z,1688.00
2022-08-12T08:04:23.987Z,1688.00
2022-08-12T08:05:23.080Z,1692.00
2022-08-12T08:06:23.040Z,1688.00
2022-08-12T08:07:23.001Z,1688.00
2022-08-12T08:08:30.415Z,1684.00
2022-08-12T08:09:24.541Z,1684.00
2022-08-12T08:10:24.810Z,1684.00
2022-08-12T08:11:22.990Z,1688.00
2022-08-12T08:12:23.280Z,1692.00
2022-08-12T08:13:29.285Z,1692.00
2022-08-12T08:14:23.239Z,1692.00
2022-08-12T08:15:38.674Z,1692.00
2022-08-12T08:16:24.886Z,1692.00
2022-08-12T08:17:22.864Z,1692.00
2022-08-12T08:18:29.163Z,1696.00
2022-08-12T08:19:22.913Z,1696.00
2022-08-12T08:20:22.886Z,1700.00
2022-08-12T08:21:22.835Z,1700.00
2022-08-12T08:22:41.080Z,1700.00
2022-08-12T08:23:29.313Z,1696.00
2022-08-12T08:24:30.684Z,1696.00
2022-08-12T08:25:35.846Z,1700.00
2022-08-12T08:26:24.255Z,1708.00
2022-08-12T08:27:22.747Z,1712.00
2022-08-12T08:28:22.785Z,1708.00
2022-08-12T08:29:23.681Z,1712.00
2022-08-12T08:30:29.050Z,1708.00
2022-08-12T08:31:23.227Z,1708.00
2022-08-12T08:32:23.153Z,1712.00
2022-08-12T08:34:09.460Z,1712.00
2022-08-12T08:34:33.805Z,1716.00
2022-08-12T08:35:38.750Z,1720.00
2022-08-12T08:36:24.429Z,1720.00
2022-08-12T08:37:22.616Z,1724.00
2022-08-12T08:38:32.177Z,1720.00
2022-08-12T08:39:24.377Z,1724.00
2022-08-12T08:40:22.638Z,1728.00
2022-08-12T08:42:16.493Z,1736.00
2022-08-12T08:42:23.824Z,1736.00
2022-08-12T08:43:22.548Z,1740.00
2022-08-12T08:44:22.550Z,1744.00
2022-08-12T08:45:22.569Z,1752.00
2022-08-12T08:46:28.934Z,1748.00
2022-08-12T08:47:22.784Z,1752.00
2022-08-12T08:48:22.843Z,1756.00
2022-08-12T08:49:22.449Z,1760.00
2022-08-12T08:50:22.496Z,1756.00
2022-08-12T08:51:22.500Z,1756.00
2022-08-12T08:52:46.392Z,1756.00
2022-08-12T08:53:23.937Z,1760.00
2022-08-12T08:54:22.410Z,1764.00
2022-08-12T08:55:33.407Z,1768.00
2022-08-12T08:56:27.776Z,1768.00
2022-08-12T08:57:22.440Z,1772.00
2022-08-12T08:58:28.907Z,1776.00
2022-08-12T08:59:22.367Z,1784.00
2022-08-12T09:00:23.071Z,1784.00
2022-08-12T09:01:22.501Z,1784.00
2022-08-12T09:02:23.484Z,1784.00
2022-08-12T09:05:08.567Z,1788.00
2022-08-12T09:05:14.398Z,1792.00
2022-08-12T09:05:23.277Z,1800.00
2022-08-12T09:07:44.193Z,1808.00
2022-08-12T09:08:29.658Z,1812.00
2022-08-12T09:09:22.219Z,1816.00
2022-08-12T09:10:30.547Z,1816.00
2022-08-12T09:14:12.594Z,1824.00
2022-08-12T09:14:29.254Z,1828.00
2022-08-12T09:16:23.362Z,1832.00
2022-08-12T09:17:22.085Z,1840.00
2022-08-12T09:18:33.723Z,1840.00
2022-08-12T09:19:26.866Z,1836.00
2022-08-12T09:20:29.314Z,1840.00
2022-08-12T09:21:23.611Z,1840.00
2022-08-12T09:22:22.068Z,1844.00
2022-08-12T09:23:58.695Z,1852.00
2022-08-12T09:25:25.700Z,1860.00
2022-08-12T09:26:28.189Z,1864.00
2022-08-12T09:27:28.761Z,1864.00
2022-08-12T09:28:22.981Z,1872.00
2022-08-12T09:30:11.489Z,1876.00
2022-08-12T09:30:42.210Z,1888.00
2022-08-12T09:32:03.696Z,1896.00
2022-08-12T09:33:03.948Z,1908.00
2022-08-12T09:34:28.085Z,1920.00
2022-08-12T09:34:28.503Z,1908.00
2022-08-12T09:35:30.594Z,1932.00
2022-08-12T09:36:31.352Z,1940.00
2022-08-12T09:37:22.835Z,1940.00
2022-08-12T09:38:27.973Z,1948.00
2022-08-12T09:40:04.298Z,1964.00
2022-08-12T09:41:01.842Z,2140.00
2022-08-12T09:42:33.915Z,2252.00
2022-08-12T09:42:42.984Z,2268.00
2022-08-12T09:43:24.685Z,2152.00
2022-08-12T09:44:38.922Z,2080.00
2022-08-12T09:46:06.631Z,2228.00
2022-08-12T09:46:25.707Z,2192.00
2022-08-12T09:47:21.782Z,2096.00
2022-08-12T09:48:23.472Z,2412.00
2022-08-12T09:49:24.012Z,2632.00
2022-08-12T09:50:28.307Z,3100.00
2022-08-12T09:51:22.785Z,2812.00
2022-08-12T09:52:21.664Z,2628.00
2022-08-12T09:53:36.205Z,2432.00
2022-08-12T09:54:34.192Z,2288.00
2022-08-12T09:56:06.990Z,2152.00
2022-08-12T09:56:58.276Z,2004.00
2022-08-12T09:58:45.628Z,1984.00
2022-08-12T09:58:57.299Z,2004.00
2022-08-12T10:00:12.819Z,2032.00
2022-08-12T10:00:29.032Z,2024.00
2022-08-12T10:01:34.684Z,2032.00
2022-08-12T10:02:45.561Z,2044.00
2022-08-12T10:03:32.667Z,2084.00
2022-08-12T10:04:24.106Z,2168.00
2022-08-12T10:05:21.553Z,2188.00
2022-08-12T10:06:31.842Z,2132.00
2022-08-12T10:07:39.491Z,2068.00
2022-08-12T10:08:22.977Z,2080.00
2022-08-12T10:09:21.482Z,2084.00
2022-08-12T10:10:24.062Z,2096.00
2022-08-12T10:11:21.419Z,2096.00
2022-08-12T10:12:31.617Z,2096.00
2022-08-12T10:13:34.592Z,2108.00
2022-08-12T10:14:33.307Z,2120.00
2022-08-12T10:16:02.645Z,2132.00
2022-08-12T10:16:23.315Z,2152.00
2022-08-12T10:17:21.692Z,2168.00
2022-08-12T10:18:22.253Z,2168.00
2022-08-12T10:19:36.390Z,2224.00
2022-08-12T10:20:22.859Z,2240.00
2022-08-12T10:21:23.394Z,2152.00
2022-08-12T10:22:39.006Z,2176.00
2022-08-12T10:23:40.432Z,2160.00
2022-08-12T10:24:29.058Z,2136.00
2022-08-12T10:25:21.261Z,2140.00
2022-08-12T10:26:37.340Z,2168.00
2022-08-12T10:27:23.760Z,2260.00
2022-08-12T10:28:25.366Z,2212.00
2022-08-12T10:30:40.087Z,2192.00
2022-08-12T10:30:40.710Z,2204.00
2022-08-12T10:31:22.672Z,2192.00
2022-08-12T10:32:44.313Z,2132.00
2022-08-12T10:33:31.181Z,2200.00
2022-08-12T10:34:28.895Z,2196.00
2022-08-12T10:35:21.100Z,2216.00
2022-08-12T10:36:21.119Z,2236.00
2022-08-12T10:38:34.891Z,2144.00
2022-08-12T10:38:37.559Z,1784.00
2022-08-12T10:40:01.676Z,1660.00
2022-08-12T10:40:32.050Z,1996.00
2022-08-12T10:41:22.357Z,2220.00
2022-08-12T10:42:29.296Z,1764.00
2022-08-12T10:43:22.023Z,2232.00
2022-08-12T10:44:21.214Z,2412.00
2022-08-12T10:45:27.379Z,2404.00
2022-08-12T10:46:21.115Z,2400.00
2022-08-12T10:47:26.675Z,2420.00
2022-08-12T10:48:37.176Z,2076.00
2022-08-12T10:50:03.226Z,2444.00
2022-08-12T10:50:33.770Z,2748.00
2022-08-12T10:52:02.899Z,2956.00
2022-08-12T10:52:34.856Z,2872.00
2022-08-12T10:53:21.902Z,2744.00
2022-08-12T10:54:22.384Z,2564.00
2022-08-12T10:55:21.119Z,2624.00
2022-08-12T10:56:34.711Z,2580.00
2022-08-12T10:58:15.560Z,2084.00
2022-08-12T10:58:30.968Z,2444.00
2022-08-12T10:59:32.129Z,2368.00
2022-08-12T11:00:33.974Z,2088.00
2022-08-12T11:04:20.168Z,2560.00
2022-08-12T11:04:20.741Z,3036.00
2022-08-12T11:04:26.954Z,3124.00
2022-08-12T11:04:39.394Z,3156.00
2022-08-12T11:07:05.442Z,2740.00
2022-08-12T11:07:07.541Z,2876.00
2022-08-12T11:08:36.997Z,2680.00
2022-08-12T11:08:37.929Z,2260.00
2022-08-12T11:09:55.628Z,2568.00
2022-08-12T11:10:26.530Z,2928.00
2022-08-12T11:12:34.605Z,3240.00
2022-08-12T11:12:55.610Z,3584.00
2022-08-12T11:13:46.301Z,3708.00
2022-08-12T11:14:49.764Z,3612.00
2022-08-12T11:15:33.539Z,3668.00
2022-08-12T11:16:36.610Z,3592.00
2022-08-12T11:17:43.319Z,3532.00
2022-08-12T11:18:21.568Z,2936.00
2022-08-12T11:19:26.949Z,3040.00
2022-08-12T11:20:20.659Z,3380.00
2022-08-12T11:21:20.552Z,4244.00
2022-08-12T11:22:24.190Z,4300.00
2022-08-12T11:23:26.032Z,4296.00
2022-08-12T11:24:30.320Z,4208.00
2022-08-12T11:25:20.515Z,4312.00
2022-08-12T11:26:21.473Z,4712.00
2022-08-12T11:27:20.472Z,4632.00
2022-08-12T11:28:34.419Z,4460.00
2022-08-12T11:29:24.151Z,3904.00
2022-08-12T11:30:31.618Z,3920.00
2022-08-12T11:31:24.329Z,3480.00
2022-08-12T11:32:20.426Z,3748.00
2022-08-12T11:33:52.614Z,3940.00
2022-08-12T11:34:53.058Z,3580.00
2022-08-12T11:35:22.811Z,3252.00
2022-08-12T11:36:26.671Z,3044.00
2022-08-12T11:37:25.824Z,3012.00
2022-08-12T11:38:21.303Z,2960.00
2022-08-12T11:39:23.623Z,3092.00
2022-08-12T11:40:21.283Z,3824.00
2022-08-12T11:41:28.084Z,3384.00
2022-08-12T11:42:51.682Z,3308.00
2022-08-12T11:43:58.222Z,3464.00
2022-08-12T11:44:53.193Z,3408.00
2022-08-12T11:45:53.100Z,3276.00
2022-08-12T11:46:53.259Z,3160.00
2022-08-12T11:47:57.703Z,2600.00
2022-08-12T11:48:52.668Z,2432.00
2022-08-12T11:49:51.986Z,2304.00
2022-08-12T11:50:51.365Z,2296.00
2022-08-12T11:51:57.663Z,2520.00
2022-08-12T11:52:55.524Z,2780.00
2022-08-12T11:54:01.301Z,2764.00
2022-08-12T11:54:51.380Z,2908.00
2022-08-12T11:55:51.398Z,3064.00
2022-08-12T11:56:52.361Z,3112.00
2022-08-12T11:58:48.947Z,3436.00
2022-08-12T12:02:02.377Z,4236.00
2022-08-12T12:02:52.760Z,4512.00
2022-08-12T12:03:51.213Z,4604.00
2022-08-12T12:04:53.100Z,4876.00
2022-08-12T12:06:00.517Z,4396.00
2022-08-12T12:06:52.968Z,4128.00
2022-08-12T12:08:37.446Z,3668.00
2022-08-12T12:08:53.663Z,4032.00
2022-08-12T12:09:53.355Z,4592.00
2022-08-12T12:10:52.121Z,4928.00
2022-08-12T12:11:57.878Z,5360.00
2022-08-12T12:12:51.200Z,5192.00
2022-08-12T12:14:06.696Z,5276.00
2022-08-12T12:14:54.877Z,5316.00
2022-08-12T12:15:51.454Z,4864.00
2022-08-12T12:16:51.199Z,4836.00
2022-08-12T12:18:08.460Z,4368.00
2022-08-12T12:18:51.027Z,3688.00
2022-08-12T12:19:51.119Z,3312.00
2022-08-12T12:20:51.032Z,3216.00
2022-08-12T12:21:51.058Z,2828.00
2022-08-12T12:22:51.011Z,2708.00
2022-08-12T12:24:00.780Z,2840.00
2022-08-12T12:24:51.563Z,2712.00
2022-08-12T12:26:07.340Z,3456.00
2022-08-12T12:27:00.617Z,3316.00
2022-08-12T12:28:05.118Z,3052.00
2022-08-12T12:28:58.711Z,3320.00
2022-08-12T12:30:19.045Z,3956.00
2022-08-12T12:30:54.789Z,5188.00
2022-08-12T12:32:10.153Z,5300.00
2022-08-12T12:32:53.343Z,5664.00
2022-08-12T12:33:58.949Z,6400.00
2022-08-12T12:35:13.589Z,6484.00
2022-08-12T12:36:06.221Z,6144.00
2022-08-12T12:36:54.646Z,5884.00